Time;durP1;ratioP1;P1;durP2;ratioP2;P2;SDS_P1;SDS_P2;PMS_P1;PMS_P2;Temp;Humidity;BMP_temperature;BMP_pressure;BME280_temperature;BME280_humidity;BME280_pressure;Samples;Min_cycle;Max_cycle;Signal;HPM_P1;HPM_P2
2023/08/02 10:36:56;;;;;;;14.65;3.80;;;15.20;80.80;;;;;;5065778;28;20453;-66
2023/08/02 10:39:46;;;;;;;21.38;4.15;;;15.20;80.80;;;;;;5068520;28;20072;-66
2023/08/02 10:42:14;;;;;;;14.80;3.97;;;15.20;80.80;;;;;;5064752;28;20032;-66
2023/08/02 10:44:56;;;;;;;17.10;3.88;;;15.20;80.80;;;;;;5067373;28;20044;-65
2023/08/02 10:47:30;;;;;;;15.60;4.55;;;15.20;80.80;;;;;;5049462;28;20037;-65
2023/08/02 10:49:58;;;;;;;15.85;4.05;;;15.10;80.80;;;;;;5048256;28;20041;-65
2023/08/02 10:52:33;;;;;;;15.43;3.95;;;15.20;81.00;;;;;;5049765;28;20040;-66
2023/08/02 10:55:19;;;;;;;21.25;4.38;;;15.10;81.10;;;;;;5064606;28;20087;-66
2023/08/02 10:57:55;;;;;;;14.57;4.13;;;15.10;81.20;;;;;;5068994;28;20041;-66
2023/08/02 11:00:25;;;;;;;14.35;4.68;;;15.00;81.30;;;;;;5069453;28;20035;-64
2023/08/02 11:02:53;;;;;;;12.00;3.83;;;15.00;81.40;;;;;;5067031;28;20033;-65
2023/08/02 11:05:39;;;;;;;12.50;4.28;;;15.00;81.50;;;;;;5069433;28;20087;-65
2023/08/02 11:08:09;;;;;;;18.35;3.55;;;15.00;81.40;;;;;;5069240;28;20040;-66
2023/08/02 11:10:50;;;;;;;25.65;4.10;;;15.00;81.40;;;;;;5065782;28;20066;-66
2023/08/02 11:13:17;;;;;;;10.88;3.10;;;15.00;81.60;;;;;;5068168;28;20521;-65
2023/08/02 11:15:45;;;;;;;13.20;2.88;;;15.00;81.60;;;;;;5067320;28;20040;-66
2023/08/02 11:18:12;;;;;;;15.63;3.65;;;15.00;81.60;;;;;;5067518;28;20036;-66
2023/08/02 11:20:40;;;;;;;10.65;2.92;;;14.90;81.60;;;;;;5069526;28;20047;-66
2023/08/02 11:23:25;;;;;;;13.27;2.72;;;14.90;81.70;;;;;;5066384;28;20048;-66
2023/08/02 11:26:13;;;;;;;13.30;3.33;;;14.80;81.90;;;;;;5061754;28;20028;-66
2023/08/02 11:28:52;;;;;;;15.63;3.78;;;14.80;81.90;;;;;;5067377;28;20044;-65
2023/08/02 11:31:23;;;;;;;13.23;3.33;;;14.70;82.10;;;;;;5068008;28;20054;-64
2023/08/02 11:33:50;;;;;;;12.90;3.40;;;14.70;82.40;;;;;;5064198;28;20163;-66
2023/08/02 11:36:17;;;;;;;13.95;3.17;;;14.70;82.30;;;;;;5049821;28;20060;-66
2023/08/02 11:38:44;;;;;;;14.27;3.50;;;14.60;82.50;;;;;;5039638;28;20040;-66
2023/08/02 11:41:19;;;;;;;12.15;3.47;;;14.60;82.60;;;;;;5068964;28;20036;-65
2023/08/02 11:43:46;;;;;;;9.27;3.42;;;14.50;82.80;;;;;;5064149;28;20055;-66
2023/08/02 11:46:15;;;;;;;15.15;3.63;;;14.50;82.90;;;;;;5050001;28;20029;-66
2023/08/02 11:48:42;;;;;;;17.40;4.30;;;14.40;83.00;;;;;;5068145;28;20044;-66
2023/08/02 11:51:10;;;;;;;14.23;4.28;;;14.30;83.10;;;;;;5068725;28;20407;-65
2023/08/02 11:53:57;;;;;;;15.05;3.83;;;14.30;83.30;;;;;;5071976;28;20037;-66
2023/08/02 11:56:24;;;;;;;18.90;4.05;;;14.30;83.40;;;;;;5050996;28;20024;-65
2023/08/02 11:58:52;;;;;;;13.60;3.67;;;14.30;83.40;;;;;;5067491;28;20024;-64
2023/08/02 12:01:20;;;;;;;14.95;3.88;;;14.30;83.50;;;;;;5067861;28;20063;-65
2023/08/02 12:04:07;;;;;;;15.70;3.90;;;14.30;83.60;;;;;;5068024;28;20041;-66
2023/08/02 12:07:04;;;;;;;14.18;4.00;;;14.20;83.60;;;;;;5034720;28;20104;-65
2023/08/02 12:09:42;;;;;;;17.27;4.50;;;14.30;83.60;;;;;;5046790;28;20094;-65
2023/08/02 12:12:09;;;;;;;12.48;3.58;;;14.20;83.60;;;;;;5066085;28;20116;-65
2023/08/02 12:14:36;;;;;;;20.13;4.28;;;14.20;83.60;;;;;;5066038;28;20075;-65
2023/08/02 12:17:04;;;;;;;11.93;4.07;;;14.20;83.70;;;;;;5066240;28;20056;-63
2023/08/02 12:19:40;;;;;;;14.52;3.90;;;14.20;84.00;;;;;;5050185;28;20032;-64
2023/08/02 12:22:08;;;;;;;20.35;4.45;;;14.10;84.10;;;;;;5065680;28;20115;-66
2023/08/02 12:24:35;;;;;;;15.68;3.85;;;14.10;84.10;;;;;;5088885;28;20482;-64
2023/08/02 12:27:18;;;;;;;13.77;3.70;;;14.00;84.20;;;;;;5074378;28;20052;-64
2023/08/02 12:29:46;;;;;;;15.88;4.07;;;14.00;84.20;;;;;;5073651;28;20442;-64
2023/08/02 12:32:29;;;;;;;14.38;3.90;;;13.90;84.40;;;;;;5054406;28;20044;-64
2023/08/02 12:34:56;;;;;;;16.17;4.43;;;13.90;84.60;;;;;;5054759;28;20037;-65
2023/08/02 12:37:24;;;;;;;13.93;3.63;;;13.90;84.80;;;;;;5073371;28;20098;-64
2023/08/02 12:39:51;;;;;;;18.42;3.95;;;13.80;85.00;;;;;;5074753;28;20036;-64
2023/08/02 12:42:18;;;;;;;21.77;4.82;;;13.70;85.20;;;;;;5072477;28;20040;-65
2023/08/02 12:44:45;;;;;;;17.00;3.80;;;13.70;85.50;;;;;;5074016;28;20066;-65
2023/08/02 12:47:12;;;;;;;17.27;4.10;;;13.60;85.60;;;;;;5074304;28;20045;-65
2023/08/02 12:49:40;;;;;;;18.25;4.32;;;13.60;85.70;;;;;;5075123;28;20033;-64
2023/08/02 12:52:07;;;;;;;14.73;4.05;;;13.60;85.70;;;;;;5071890;28;20033;-65
2023/08/02 12:54:34;;;;;;;14.50;3.88;;;13.60;86.00;;;;;;5074501;28;20044;-65
2023/08/02 12:57:01;;;;;;;18.55;4.28;;;13.70;85.90;;;;;;5068709;28;20051;-65
2023/08/02 12:59:29;;;;;;;17.15;4.47;;;13.70;85.90;;;;;;5089719;28;20033;-65
2023/08/02 13:01:57;;;;;;;18.98;4.50;;;13.70;85.80;;;;;;5072631;28;20094;-65
2023/08/02 13:04:25;;;;;;;18.98;4.55;;;13.60;85.70;;;;;;5061884;28;20033;-65
2023/08/02 13:06:52;;;;;;;16.48;3.90;;;13.60;86.00;;;;;;5055698;28;20106;-67
2023/08/02 13:09:19;;;;;;;15.05;4.00;;;13.60;86.10;;;;;;5056576;28;20029;-65
2023/08/02 13:11:47;;;;;;;16.55;4.43;;;13.50;86.10;;;;;;5071987;28;20450;-65
2023/08/02 13:14:14;;;;;;;16.08;4.25;;;13.50;86.30;;;;;;5053667;28;20039;-66
2023/08/02 13:16:41;;;;;;;16.92;4.63;;;13.50;86.10;;;;;;5066044;28;20410;-65
2023/08/02 13:19:08;;;;;;;22.27;4.72;;;13.50;86.20;;;;;;5073712;28;20052;-65
2023/08/02 13:21:36;;;;;;;14.25;4.65;;;13.50;86.30;;;;;;5056466;28;20060;-65
2023/08/02 13:24:03;;;;;;;23.30;5.00;;;13.60;86.20;;;;;;5055089;28;20082;-65
2023/08/02 13:26:30;;;;;;;20.98;4.38;;;13.60;86.00;;;;;;5038945;28;20041;-65
2023/08/02 13:28:58;;;;;;;18.95;4.55;;;13.60;85.90;;;;;;5072282;28;20044;-66
2023/08/02 13:31:25;;;;;;;18.98;4.85;;;13.60;85.70;;;;;;5088875;28;20028;-66
2023/08/02 13:33:53;;;;;;;20.20;5.15;;;13.60;85.80;;;;;;5069781;28;20051;-65
2023/08/02 13:36:20;;;;;;;22.48;5.13;;;13.50;85.90;;;;;;5073139;28;20102;-66
2023/08/02 13:38:47;;;;;;;15.55;4.45;;;13.50;85.90;;;;;;5072720;28;20029;-66
2023/08/02 13:41:14;;;;;;;18.42;4.88;;;13.50;85.90;;;;;;5073684;28;20025;-65
2023/08/02 13:43:41;;;;;;;18.73;4.40;;;13.50;86.00;;;;;;5073662;28;20039;-65
2023/08/02 13:46:09;;;;;;;16.50;4.10;;;13.40;86.10;;;;;;5071825;28;20168;-65
2023/08/02 13:48:36;;;;;;;21.63;5.57;;;13.40;86.20;;;;;;5073300;28;20129;-65
2023/08/02 13:51:03;;;;;;;16.63;5.18;;;13.40;86.30;;;;;;5073181;28;20043;-65
2023/08/02 14:42:41;;;;;;;16.52;4.60;;;13.10;87.20;;;;;;5066589;28;20141;-65
2023/08/02 14:45:08;;;;;;;19.40;3.60;;;13.00;87.40;;;;;;5070303;28;20490;-65
2023/08/02 14:47:36;;;;;;;13.82;3.63;;;13.00;87.20;;;;;;5068921;28;20051;-65
2023/08/02 14:50:04;;;;;;;11.02;3.80;;;12.90;87.30;;;;;;5069118;28;20533;-65
2023/08/02 14:52:31;;;;;;;12.63;3.92;;;12.90;87.30;;;;;;5070264;28;20048;-65
2023/08/02 14:54:59;;;;;;;12.38;3.85;;;12.90;87.30;;;;;;5068631;28;20064;-66
2023/08/02 14:57:27;;;;;;;16.88;3.65;;;12.90;87.30;;;;;;5069455;28;20033;-66
2023/08/02 14:59:54;;;;;;;10.35;3.53;;;12.90;87.10;;;;;;5070369;28;20469;-66
2023/08/02 15:02:21;;;;;;;10.48;3.17;;;12.90;87.30;;;;;;5068868;28;20116;-65
2023/08/02 15:04:48;;;;;;;12.68;3.50;;;12.80;87.10;;;;;;5072180;28;20037;-65
2023/08/02 15:07:16;;;;;;;13.60;3.50;;;12.90;87.40;;;;;;5070984;28;20087;-66
2023/08/02 15:09:45;;;;;;;12.07;3.47;;;12.80;87.50;;;;;;5052216;28;20388;-65
2023/08/02 15:12:13;;;;;;;10.55;3.20;;;12.70;87.70;;;;;;5066884;28;20119;-65
2023/08/02 15:14:40;;;;;;;15.05;4.07;;;12.70;87.50;;;;;;5072170;28;20033;-65
2023/08/02 15:17:07;;;;;;;11.05;3.60;;;12.70;87.40;;;;;;5071991;28;20029;-65
2023/08/02 15:19:34;;;;;;;15.75;3.85;;;12.80;87.30;;;;;;5071417;28;20032;-66
2023/08/02 15:22:02;;;;;;;10.25;3.53;;;12.80;87.10;;;;;;5053733;28;20040;-65
2023/08/02 15:24:29;;;;;;;10.57;3.30;;;12.70;87.20;;;;;;5054162;28;20110;-66
2023/08/02 15:26:58;;;;;;;19.15;4.35;;;12.70;87.30;;;;;;5072087;28;20461;-66
2023/08/02 15:29:28;;;;;;;17.17;4.32;;;12.70;87.20;;;;;;5053991;28;20139;-65
2023/08/02 15:31:56;;;;;;;14.70;3.53;;;12.70;87.10;;;;;;5068908;28;20509;-66
2023/08/02 15:34:24;;;;;;;11.23;3.10;;;12.80;87.30;;;;;;5070719;28;20037;-66
2023/08/02 15:36:51;;;;;;;15.40;3.58;;;12.70;87.30;;;;;;5071888;28;20032;-65
2023/08/02 15:39:18;;;;;;;10.38;3.28;;;12.70;87.30;;;;;;5070371;28;20045;-65
2023/08/02 15:41:45;;;;;;;16.55;3.33;;;12.70;87.50;;;;;;5070359;28;20098;-65
2023/08/02 15:44:12;;;;;;;10.25;2.78;;;12.60;87.40;;;;;;5087301;28;20032;-65
2023/08/02 15:46:40;;;;;;;14.73;3.30;;;12.60;87.30;;;;;;5072196;28;20054;-66
2023/08/02 15:49:08;;;;;;;13.95;3.25;;;12.60;87.40;;;;;;5070063;28;20068;-65
2023/08/02 15:51:35;;;;;;;16.35;3.20;;;12.60;87.30;;;;;;5053156;28;20487;-65
2023/08/02 15:54:02;;;;;;;10.05;2.92;;;12.60;87.40;;;;;;5070559;28;20037;-65
2023/08/02 15:56:29;;;;;;;11.90;2.80;;;12.50;87.60;;;;;;5071763;28;20056;-65
2023/08/02 15:58:57;;;;;;;12.20;3.35;;;12.50;87.60;;;;;;5072564;28;20032;-66
2023/08/02 16:01:26;;;;;;;11.02;2.80;;;12.50;87.60;;;;;;5074940;28;20044;-65
2023/08/02 16:03:53;;;;;;;9.35;2.88;;;12.50;87.70;;;;;;5073587;28;20025;-65
2023/08/02 16:06:20;;;;;;;10.95;3.20;;;12.50;87.80;;;;;;5075209;28;20047;-66
2023/08/02 16:08:47;;;;;;;18.63;3.80;;;12.50;87.90;;;;;;5075189;28;20041;-66
2023/08/02 16:11:14;;;;;;;15.82;4.70;;;12.40;88.20;;;;;;5074803;28;20040;-66
2023/08/02 16:13:42;;;;;;;17.75;4.80;;;12.40;88.30;;;;;;5057368;28;20035;-65
2023/08/02 16:16:09;;;;;;;20.83;5.78;;;12.30;88.30;;;;;;5074082;28;20129;-65
2023/08/02 16:18:36;;;;;;;11.48;4.13;;;12.30;88.40;;;;;;5075308;28;20029;-66
2023/08/02 16:21:04;;;;;;;15.52;4.35;;;12.40;88.20;;;;;;5076846;28;20036;-65
2023/08/02 16:23:31;;;;;;;11.77;3.42;;;12.30;88.40;;;;;;5086118;28;20029;-65
2023/08/02 16:25:58;;;;;;;15.10;3.53;;;12.40;88.50;;;;;;5072846;28;20031;-66
2023/08/02 16:28:26;;;;;;;8.65;2.92;;;12.40;88.70;;;;;;5074860;28;20040;-65
2023/08/02 16:30:53;;;;;;;11.88;3.20;;;12.40;88.90;;;;;;5073758;28;20040;-65
2023/08/02 16:33:20;;;;;;;12.88;3.03;;;12.40;88.30;;;;;;5073551;28;20526;-65
2023/08/02 16:35:47;;;;;;;13.57;3.08;;;12.30;88.20;;;;;;5072889;28;20043;-65
2023/08/02 16:38:14;;;;;;;9.65;2.90;;;12.20;88.50;;;;;;5074961;28;20104;-65
2023/08/02 16:40:45;;;;;;;15.38;3.35;;;12.20;88.30;;;;;;5073137;28;20028;-65
2023/08/02 16:43:13;;;;;;;11.95;3.20;;;12.20;88.30;;;;;;5073252;28;20041;-65
2023/08/02 16:45:40;;;;;;;11.50;3.10;;;12.20;88.50;;;;;;5074021;28;20036;-65
2023/08/02 16:48:07;;;;;;;11.32;3.95;;;12.20;88.50;;;;;;5073569;28;20038;-65
2023/08/02 16:50:35;;;;;;;13.40;3.15;;;12.20;88.60;;;;;;5074432;28;20090;-66
2023/08/02 16:53:02;;;;;;;8.93;3.10;;;12.30;88.50;;;;;;5056698;28;20433;-65
2023/08/02 16:55:29;;;;;;;7.53;2.75;;;12.20;88.50;;;;;;5073333;28;20025;-66
2023/08/02 16:57:56;;;;;;;9.70;2.78;;;12.20;88.60;;;;;;5072934;28;20033;-65
2023/08/02 17:00:24;;;;;;;10.65;3.70;;;12.20;88.40;;;;;;5074344;28;20115;-65
2023/08/02 17:02:51;;;;;;;7.28;2.88;;;12.20;88.50;;;;;;5074594;28;20360;-65
2023/08/02 17:05:18;;;;;;;10.18;3.33;;;12.20;88.50;;;;;;5072446;28;20032;-65
2023/08/02 17:07:46;;;;;;;12.75;3.00;;;12.20;88.50;;;;;;5072510;28;20044;-65
2023/08/02 17:10:13;;;;;;;10.63;2.50;;;12.20;88.80;;;;;;5072789;28;20050;-65
2023/08/02 17:12:40;;;;;;;10.13;3.00;;;12.20;88.90;;;;;;5089580;28;20036;-65
2023/08/02 17:15:10;;;;;;;14.63;2.83;;;12.20;89.00;;;;;;5072245;28;20032;-65
2023/08/02 17:17:37;;;;;;;15.55;3.03;;;12.20;89.00;;;;;;5073004;28;20128;-65
2023/08/02 17:20:05;;;;;;;9.25;3.00;;;12.30;88.80;;;;;;5067220;28;20087;-66
2023/08/02 17:22:32;;;;;;;7.10;2.40;;;12.30;88.60;;;;;;5070902;28;20060;-66
2023/08/02 17:25:00;;;;;;;9.90;3.17;;;12.20;88.60;;;;;;5072613;28;20105;-65
2023/08/02 17:27:27;;;;;;;9.68;3.10;;;12.20;88.50;;;;;;5072560;28;20135;-65
2023/08/02 17:29:54;;;;;;;13.73;2.83;;;12.10;88.30;;;;;;5073823;28;20123;-66
2023/08/02 17:32:21;;;;;;;15.98;2.95;;;12.00;88.30;;;;;;5072557;28;20374;-65
2023/08/02 17:34:48;;;;;;;18.05;3.67;;;12.00;88.50;;;;;;5073614;28;20047;-65
2023/08/02 17:37:16;;;;;;;12.48;3.40;;;12.00;88.90;;;;;;5071866;28;20445;-66
2023/08/02 17:39:43;;;;;;;10.85;2.88;;;12.00;88.90;;;;;;5073978;28;20055;-65
2023/08/02 17:42:10;;;;;;;8.80;3.13;;;12.00;88.70;;;;;;5073169;28;20040;-65
2023/08/02 17:44:37;;;;;;;11.57;3.25;;;11.90;88.80;;;;;;5073551;28;20045;-65
2023/08/02 17:47:05;;;;;;;8.13;2.90;;;11.90;88.80;;;;;;5070861;28;20032;-66
2023/08/02 17:49:32;;;;;;;9.70;3.08;;;11.90;88.90;;;;;;5073059;28;20395;-65
2023/08/02 17:51:59;;;;;;;8.48;2.60;;;11.90;88.80;;;;;;5072268;28;20029;-65
2023/08/02 17:54:26;;;;;;;9.50;3.10;;;11.90;88.70;;;;;;5071887;28;20563;-65
2023/08/02 17:56:54;;;;;;;13.77;3.47;;;11.90;88.30;;;;;;5072268;28;20048;-65
2023/08/02 17:59:22;;;;;;;11.75;3.08;;;11.90;88.40;;;;;;5073220;28;20063;-65
2023/08/02 18:01:49;;;;;;;9.18;2.80;;;11.90;88.50;;;;;;5072858;28;20041;-65
2023/08/02 18:04:19;;;;;;;12.65;3.35;;;11.90;88.40;;;;;;5072136;28;20035;-65
2023/08/02 18:06:47;;;;;;;17.93;3.33;;;11.80;88.50;;;;;;5071994;28;20120;-65
2023/08/02 18:09:14;;;;;;;14.95;3.40;;;11.70;88.70;;;;;;5072610;28;20094;-65
2023/08/02 18:11:41;;;;;;;11.43;3.30;;;11.80;89.00;;;;;;5072652;28;20048;-66
2023/08/02 18:14:08;;;;;;;13.85;3.03;;;11.80;89.10;;;;;;5071566;28;20033;-65
2023/08/02 18:16:36;;;;;;;13.18;3.00;;;11.80;89.10;;;;;;5072055;28;20447;-66
2023/08/02 18:19:03;;;;;;;8.45;2.88;;;11.70;89.30;;;;;;5072238;28;20120;-66
2023/08/02 18:21:30;;;;;;;12.82;3.10;;;11.70;89.50;;;;;;5071543;28;20032;-66
2023/08/02 18:23:58;;;;;;;12.25;3.00;;;11.70;89.30;;;;;;5072688;28;20040;-65
2023/08/02 18:26:25;;;;;;;10.40;3.00;;;11.70;89.30;;;;;;5071772;28;20107;-65
2023/08/02 18:28:52;;;;;;;14.55;3.35;;;11.70;89.20;;;;;;5071235;28;20394;-65
2023/08/02 18:31:19;;;;;;;14.82;3.08;;;11.70;89.00;;;;;;5070670;28;20386;-66
2023/08/02 18:33:47;;;;;;;11.15;3.00;;;11.70;89.10;;;;;;5072286;28;20605;-65
2023/08/02 18:36:15;;;;;;;14.68;3.03;;;11.70;89.10;;;;;;5071248;28;20230;-65
2023/08/02 18:38:42;;;;;;;12.32;2.90;;;11.70;89.00;;;;;;5062936;28;20165;-66
2023/08/02 18:41:17;;;;;;;12.38;3.10;;;11.70;89.10;;;;;;5072101;28;20105;-65
2023/08/02 18:43:46;;;;;;;11.07;3.05;;;11.60;89.10;;;;;;5088062;28;20036;-65
2023/08/02 18:46:18;;;;;;;10.32;2.90;;;11.50;89.00;;;;;;5067235;28;20390;-66
2023/08/02 18:48:48;;;;;;;9.23;3.10;;;11.40;89.30;;;;;;5051186;28;20058;-67
2023/08/02 18:51:21;;;;;;;12.13;3.28;;;11.40;89.50;;;;;;5052442;28;20078;-66
2023/08/02 18:53:50;;;;;;;15.50;2.90;;;11.50;89.40;;;;;;5055139;28;20033;-66
2023/08/02 18:56:21;;;;;;;8.43;2.78;;;11.50;89.50;;;;;;5044601;28;20474;-66
2023/08/02 18:58:49;;;;;;;9.48;3.20;;;11.50;89.50;;;;;;5036192;28;20060;-65
2023/08/02 19:01:16;;;;;;;9.20;3.00;;;11.50;89.50;;;;;;5070144;28;20129;-67
2023/08/02 19:03:44;;;;;;;9.48;2.70;;;11.40;89.60;;;;;;5072068;28;20376;-67
2023/08/02 19:06:11;;;;;;;11.30;3.63;;;11.50;89.70;;;;;;5072179;28;20415;-67
2023/08/02 19:08:38;;;;;;;14.07;3.28;;;11.50;89.40;;;;;;5072823;28;20040;-67
2023/08/02 19:11:06;;;;;;;10.10;3.20;;;11.50;89.70;;;;;;5092637;28;20776;-65
2023/08/02 19:13:33;;;;;;;12.07;3.47;;;11.60;89.80;;;;;;5074278;28;20036;-65
2023/08/02 19:16:01;;;;;;;10.52;3.03;;;11.60;89.70;;;;;;5074370;28;20037;-68
2023/08/02 19:18:28;;;;;;;11.50;2.85;;;11.50;89.70;;;;;;5069634;28;20040;-68
2023/08/02 19:20:55;;;;;;;12.82;3.15;;;11.50;89.50;;;;;;5072152;28;20478;-68
2023/08/02 23:33:45;;;;;;;17.20;5.45;;;13.20;88.90;;;;;;5054128;28;19986;-66
2023/08/02 23:36:13;;;;;;;15.38;5.35;;;13.30;88.70;;;;;;5069828;28;20043;-66
2023/08/02 23:38:40;;;;;;;13.65;5.22;;;13.30;88.50;;;;;;5070515;28;20491;-67
2023/08/02 23:41:07;;;;;;;12.57;4.82;;;13.40;88.20;;;;;;5070985;28;20115;-66
2023/08/02 23:43:34;;;;;;;17.02;5.70;;;13.40;88.20;;;;;;5071631;28;20112;-66
2023/08/02 23:46:01;;;;;;;19.15;5.25;;;13.50;88.30;;;;;;5071272;28;20061;-67
2023/08/02 23:48:29;;;;;;;19.45;4.68;;;13.50;88.10;;;;;;5061273;28;20044;-67
2023/08/02 23:50:56;;;;;;;11.98;4.28;;;13.60;88.00;;;;;;5068886;28;20071;-66
2023/08/02 23:53:23;;;;;;;12.82;4.15;;;13.60;88.20;;;;;;5050656;28;20060;-67
2023/08/02 23:55:51;;;;;;;13.13;4.13;;;13.70;88.20;;;;;;5071409;28;20029;-67
2023/08/02 23:58:18;;;;;;;10.00;4.20;;;13.70;88.00;;;;;;5071463;28;20024;-67
